Time;durP1;ratioP1;P1;durP2;ratioP2;P2;SDS_P1;SDS_P2;PMS_P1;PMS_P2;Temp;Humidity;BMP_temperature;BMP_pressure;BME280_temperature;BME280_humidity;BME280_pressure;Samples;Min_cycle;Max_cycle;Signal;HPM_P1;HPM_P2
2024/03/03 00:01:02;;;;;;;17.52;10.55;;;9.40;99.90;;;;;;5072650;28;20114;-69
2024/03/03 00:03:28;;;;;;;17.88;10.27;;;9.30;1.00;;;;;;5072866;28;20036;-69
2024/03/03 00:05:53;;;;;;;17.20;10.65;;;9.30;1.00;;;;;;5072761;28;20486;-69
2024/03/03 00:08:19;;;;;;;15.13;9.73;;;9.30;1.00;;;;;;5072706;28;20033;-69
2024/03/03 00:10:44;;;;;;;16.08;10.57;;;9.20;1.00;;;;;;5072660;28;20214;-70
2024/03/03 00:13:10;;;;;;;15.63;10.23;;;9.20;1.00;;;;;;5072723;28;20016;-68
2024/03/03 00:15:35;;;;;;;17.67;10.23;;;9.20;14.90;;;;;;5072314;28;20027;-69
2024/03/03 00:18:01;;;;;;;16.08;9.70;;;9.10;28.50;;;;;;5072814;28;20028;-69
2024/03/03 00:20:27;;;;;;;15.90;10.50;;;9.00;94.00;;;;;;5072601;28;20021;-69
2024/03/03 00:22:52;;;;;;;16.40;10.25;;;8.90;99.90;;;;;;5072896;28;20025;-68
2024/03/03 00:25:18;;;;;;;19.05;11.20;;;8.80;1.00;;;;;;5072554;28;20086;-69
2024/03/03 00:27:43;;;;;;;17.50;11.23;;;8.80;1.00;;;;;;5072551;28;20021;-69
2024/03/03 00:30:09;;;;;;;16.77;10.05;;;8.70;97.10;;;;;;5072024;28;20021;-68
2024/03/03 00:32:35;;;;;;;21.52;11.65;;;8.70;99.90;;;;;;5072125;28;20028;-69
2024/03/03 00:35:00;;;;;;;18.05;11.13;;;8.60;1.00;;;;;;5072502;28;20120;-68
2024/03/03 00:37:26;;;;;;;19.80;11.57;;;8.50;1.00;;;;;;5072586;28;20025;-69
2024/03/03 00:39:51;;;;;;;17.77;11.77;;;8.50;99.90;;;;;;5075547;28;20035;-68
2024/03/03 00:42:17;;;;;;;18.80;11.45;;;8.50;99.90;;;;;;5076073;28;20036;-68
2024/03/03 00:44:43;;;;;;;17.98;11.77;;;8.50;99.90;;;;;;5075598;28;20432;-69
2024/03/03 00:47:08;;;;;;;18.60;11.52;;;8.50;99.90;;;;;;5075686;28;20067;-69
2024/03/03 00:49:34;;;;;;;19.02;11.38;;;8.50;99.90;;;;;;5075948;28;20028;-69
2024/03/03 00:52:01;;;;;;;19.45;11.80;;;8.60;1.00;;;;;;5075784;28;20020;-68
2024/03/03 00:54:26;;;;;;;20.20;12.10;;;8.50;99.90;;;;;;5075892;28;20021;-69
2024/03/03 00:56:52;;;;;;;19.15;10.77;;;8.50;99.90;;;;;;5075313;28;20027;-68
2024/03/03 00:59:17;;;;;;;18.33;11.35;;;8.40;99.90;;;;;;5075765;28;20068;-69
2024/03/03 01:01:43;;;;;;;19.45;11.35;;;8.30;99.90;;;;;;5075272;28;20032;-69
2024/03/03 01:04:08;;;;;;;19.80;11.32;;;8.40;1.00;;;;;;5075780;28;20119;-69
2024/03/03 01:06:34;;;;;;;20.40;11.20;;;8.50;99.90;;;;;;5075796;28;20032;-67
2024/03/03 01:08:59;;;;;;;19.20;11.65;;;8.50;99.90;;;;;;5075637;28;20108;-66
2024/03/03 01:11:25;;;;;;;18.33;11.48;;;8.50;99.90;;;;;;5075462;28;20049;-67
2024/03/03 01:13:51;;;;;;;19.45;11.30;;;8.60;1.00;;;;;;5075084;28;20390;-67
2024/03/03 01:16:16;;;;;;;17.38;10.43;;;8.70;1.00;;;;;;5075398;28;20013;-66
2024/03/03 01:18:42;;;;;;;16.90;10.75;;;8.80;62.20;;;;;;5075271;28;20158;-67
2024/03/03 01:21:07;;;;;;;20.45;11.85;;;8.80;1.00;;;;;;5075229;28;20055;-67
2024/03/03 01:23:34;;;;;;;20.38;11.93;;;8.80;56.30;;;;;;5075173;28;20024;-67
2024/03/03 01:26:00;;;;;;;18.95;11.75;;;8.90;99.90;;;;;;5074715;28;20028;-67
2024/03/03 01:28:25;;;;;;;17.08;11.35;;;8.90;99.90;;;;;;5075207;28;20037;-67
2024/03/03 01:30:51;;;;;;;20.85;11.57;;;8.90;1.00;;;;;;5074650;28;20048;-67
2024/03/03 01:33:16;;;;;;;17.73;11.90;;;8.80;1.00;;;;;;5074663;28;20025;-67
2024/03/03 01:35:42;;;;;;;18.02;11.80;;;8.70;1.00;;;;;;5074932;28;20058;-67
2024/03/03 01:38:07;;;;;;;19.02;12.43;;;8.70;99.90;;;;;;5075044;28;20068;-68
2024/03/03 01:40:33;;;;;;;17.02;11.52;;;8.80;18.40;;;;;;5075120;28;20020;-68
2024/03/03 01:42:58;;;;;;;18.13;11.35;;;8.80;1.00;;;;;;5075059;28;20475;-67
2024/03/03 01:45:24;;;;;;;21.23;12.40;;;8.70;99.90;;;;;;5074798;28;20024;-67
2024/03/03 01:47:52;;;;;;;16.60;10.85;;;8.80;1.00;;;;;;5074800;28;20055;-67
2024/03/03 01:50:18;;;;;;;20.02;11.85;;;8.70;79.60;;;;;;5074824;28;20363;-67
2024/03/03 01:52:46;;;;;;;18.52;11.50;;;8.70;99.90;;;;;;5074460;28;20020;-68
2024/03/03 01:55:13;;;;;;;18.77;11.82;;;8.70;99.90;;;;;;5074262;28;20043;-68
2024/03/03 01:57:39;;;;;;;18.77;11.40;;;8.80;99.90;;;;;;5074716;28;20025;-68
2024/03/03 02:00:09;;;;;;;18.13;11.95;;;8.80;71.50;;;;;;5074233;28;20497;-68
2024/03/03 02:02:38;;;;;;;19.88;12.45;;;8.80;1.00;;;;;;5074568;28;20554;-68
2024/03/03 02:05:04;;;;;;;17.02;11.60;;;8.90;1.00;;;;;;5074508;28;20029;-67
2024/03/03 02:07:30;;;;;;;19.83;11.63;;;8.80;1.00;;;;;;5074519;28;20032;-67
2024/03/03 02:09:56;;;;;;;19.48;11.57;;;9.00;99.90;;;;;;5074602;28;20052;-67
2024/03/03 02:12:25;;;;;;;19.33;12.05;;;9.00;99.90;;;;;;5074009;28;20028;-68
2024/03/03 02:14:51;;;;;;;19.58;12.50;;;8.90;99.90;;;;;;5074336;28;20028;-67
2024/03/03 02:17:18;;;;;;;19.10;11.82;;;8.90;99.90;;;;;;5074290;28;20478;-67
2024/03/03 02:19:43;;;;;;;19.45;12.00;;;8.90;1.00;;;;;;5074148;28;20059;-68
2024/03/03 02:22:09;;;;;;;19.38;12.10;;;8.90;1.00;;;;;;5074297;28;20447;-67
2024/03/03 02:24:34;;;;;;;23.20;13.07;;;8.90;1.00;;;;;;5074217;28;20504;-67
2024/03/03 02:27:01;;;;;;;19.20;12.60;;;8.90;1.00;;;;;;5074234;28;20211;-67
2024/03/03 02:29:28;;;;;;;20.27;12.13;;;9.00;1.00;;;;;;5074113;28;20052;-67
2024/03/03 02:31:53;;;;;;;21.80;12.48;;;9.00;1.00;;;;;;5073255;28;20044;-67
2024/03/03 02:34:19;;;;;;;18.92;12.07;;;9.00;25.70;;;;;;5073900;28;20112;-67
2024/03/03 02:36:44;;;;;;;18.83;12.05;;;9.00;1.00;;;;;;5073808;28;20028;-68
2024/03/03 02:39:10;;;;;;;20.20;12.10;;;9.00;1.00;;;;;;5073458;28;20461;-67
2024/03/03 02:41:35;;;;;;;22.05;12.85;;;9.00;1.00;;;;;;5073858;28;20028;-67
2024/03/03 02:44:01;;;;;;;18.30;12.20;;;9.10;99.90;;;;;;5073858;28;20033;-67
2024/03/03 02:46:26;;;;;;;20.65;11.48;;;9.00;99.90;;;;;;5073774;28;20064;-68
2024/03/03 02:48:52;;;;;;;29.30;12.25;;;9.00;99.90;;;;;;5073229;28;20098;-68
2024/03/03 02:51:18;;;;;;;20.48;12.52;;;9.10;99.90;;;;;;5073492;28;20091;-67
2024/03/03 02:53:43;;;;;;;22.20;12.63;;;9.10;99.90;;;;;;5073467;28;20012;-68
2024/03/03 02:56:09;;;;;;;18.70;12.30;;;9.10;99.90;;;;;;5073536;28;20021;-67
2024/03/03 02:58:34;;;;;;;23.30;13.35;;;9.10;99.90;;;;;;5073144;28;20020;-68
2024/03/03 03:01:00;;;;;;;19.63;12.30;;;9.20;99.90;;;;;;5073253;28;20086;-68
2024/03/03 03:03:25;;;;;;;19.48;12.55;;;9.10;99.90;;;;;;5073391;28;20028;-67
2024/03/03 03:05:51;;;;;;;23.13;13.07;;;9.20;99.90;;;;;;5073457;28;20032;-68
2024/03/03 03:08:16;;;;;;;20.05;11.88;;;9.10;99.90;;;;;;5073422;28;20471;-68
2024/03/03 03:10:42;;;;;;;22.13;12.73;;;9.20;99.90;;;;;;5073429;28;20070;-67
2024/03/03 03:13:08;;;;;;;21.67;12.45;;;9.20;99.90;;;;;;5073498;28;20157;-68
2024/03/03 03:15:35;;;;;;;22.80;12.27;;;9.10;99.90;;;;;;5072984;28;20406;-68
2024/03/03 03:18:03;;;;;;;21.90;13.10;;;9.10;99.90;;;;;;5073425;28;20027;-68
2024/03/03 03:20:29;;;;;;;22.60;12.98;;;9.10;1.00;;;;;;5073422;28;20552;-68
2024/03/03 03:22:55;;;;;;;20.42;12.27;;;9.10;1.00;;;;;;5073160;28;20025;-68
2024/03/03 03:25:20;;;;;;;21.98;12.88;;;9.00;1.00;;;;;;5073273;28;20387;-68
2024/03/03 03:27:46;;;;;;;24.35;13.57;;;9.00;99.90;;;;;;5073173;28;20028;-68
2024/03/03 03:30:12;;;;;;;19.52;13.15;;;9.00;99.90;;;;;;5073378;28;20020;-68
2024/03/03 03:32:38;;;;;;;22.17;13.50;;;9.00;99.90;;;;;;5073007;28;20167;-68
2024/03/03 03:35:04;;;;;;;20.88;13.18;;;8.90;99.90;;;;;;5073144;28;20068;-68
2024/03/03 03:37:30;;;;;;;21.65;12.80;;;9.00;99.90;;;;;;5073203;28;20450;-68
2024/03/03 03:39:56;;;;;;;20.17;12.85;;;8.90;99.90;;;;;;5073092;28;20025;-68
2024/03/03 03:42:21;;;;;;;22.45;13.75;;;8.90;99.90;;;;;;5073110;28;20380;-68
2024/03/03 03:44:47;;;;;;;24.33;12.63;;;8.90;99.90;;;;;;5073064;28;20040;-68
2024/03/03 03:47:12;;;;;;;25.98;13.50;;;8.90;99.90;;;;;;5072693;28;20558;-68
2024/03/03 03:49:38;;;;;;;20.42;12.60;;;8.90;99.90;;;;;;5072996;28;20040;-68
2024/03/03 03:52:04;;;;;;;22.77;13.32;;;8.90;99.90;;;;;;5072728;28;20032;-68
2024/03/03 03:54:30;;;;;;;24.50;12.70;;;8.90;1.00;;;;;;5073203;28;20031;-68
2024/03/03 03:56:58;;;;;;;19.90;12.05;;;8.90;99.90;;;;;;5073023;28;20029;-68
2024/03/03 03:59:24;;;;;;;21.92;12.52;;;8.90;99.90;;;;;;5072942;28;20377;-68
2024/03/03 04:01:51;;;;;;;22.63;13.73;;;8.90;99.90;;;;;;5072852;28;20029;-68
2024/03/03 04:04:16;;;;;;;20.63;12.95;;;8.90;99.90;;;;;;5072951;28;20486;-67
2024/03/03 04:06:42;;;;;;;22.77;13.07;;;9.00;99.90;;;;;;5072497;28;20074;-68
2024/03/03 04:09:07;;;;;;;22.48;12.65;;;9.10;1.00;;;;;;5072891;28;20505;-68
2024/03/03 04:11:33;;;;;;;21.58;12.50;;;9.10;99.90;;;;;;5072684;28;20025;-67
2024/03/03 04:13:59;;;;;;;19.80;11.82;;;9.10;99.90;;;;;;5075102;28;20039;-68
2024/03/03 04:16:24;;;;;;;24.23;13.45;;;9.10;99.90;;;;;;5076591;28;20470;-68
2024/03/03 04:18:50;;;;;;;23.80;12.40;;;9.00;99.90;;;;;;5076599;28;20047;-68
2024/03/03 04:21:16;;;;;;;19.75;12.02;;;9.00;99.90;;;;;;5076384;28;20029;-68
2024/03/03 04:23:42;;;;;;;22.38;12.68;;;9.00;99.90;;;;;;5076519;28;20035;-68
2024/03/03 04:26:09;;;;;;;21.70;13.20;;;9.00;99.90;;;;;;5076498;28;20040;-68
2024/03/03 04:28:34;;;;;;;19.60;12.45;;;9.10;99.90;;;;;;5076326;28;20034;-67
2024/03/03 04:31:05;;;;;;;20.45;13.02;;;9.00;1.00;;;;;;5076094;28;20161;-68
2024/03/03 04:33:33;;;;;;;20.35;12.95;;;9.00;1.00;;;;;;5076267;28;20512;-68
2024/03/03 04:35:58;;;;;;;21.58;12.93;;;9.00;1.00;;;;;;5076401;28;20107;-68
2024/03/03 04:38:24;;;;;;;23.33;13.02;;;8.90;1.00;;;;;;5076081;28;20108;-68
2024/03/03 04:40:49;;;;;;;19.98;11.85;;;8.80;99.90;;;;;;5076076;28;20063;-69
2024/03/03 04:43:15;;;;;;;22.40;12.75;;;8.80;45.70;;;;;;5076118;28;20033;-68
2024/03/03 04:45:40;;;;;;;20.00;12.27;;;8.80;99.90;;;;;;5075812;28;20025;-69
2024/03/03 04:48:06;;;;;;;26.33;13.07;;;8.80;99.90;;;;;;5076166;28;20039;-69
2024/03/03 04:50:32;;;;;;;23.95;13.38;;;8.80;99.90;;;;;;5075935;28;20120;-68
2024/03/03 04:52:57;;;;;;;22.40;12.57;;;8.80;99.90;;;;;;5076066;28;20021;-68
2024/03/03 04:55:23;;;;;;;25.58;13.40;;;8.70;99.90;;;;;;5075833;28;20028;-69
2024/03/03 04:57:48;;;;;;;20.85;12.63;;;8.60;69.00;;;;;;5075846;28;20031;-68
2024/03/03 05:00:14;;;;;;;21.95;12.98;;;8.60;99.90;;;;;;5075766;28;20043;-68
2024/03/03 05:02:40;;;;;;;20.25;12.55;;;8.50;18.20;;;;;;5075776;28;20075;-68
2024/03/03 05:05:06;;;;;;;26.60;14.18;;;8.50;99.90;;;;;;5075841;28;20029;-68
2024/03/03 05:07:33;;;;;;;24.17;13.93;;;8.40;1.00;;;;;;5075785;28;20035;-68
2024/03/03 05:09:59;;;;;;;22.88;13.55;;;8.30;57.90;;;;;;5075326;28;20025;-67
2024/03/03 05:12:24;;;;;;;23.33;13.63;;;8.30;99.90;;;;;;5075254;28;20032;-67
2024/03/03 05:14:50;;;;;;;22.80;13.07;;;8.20;99.90;;;;;;5075526;28;20021;-68
2024/03/03 05:17:15;;;;;;;22.75;13.18;;;8.20;99.90;;;;;;5075504;28;20429;-67
2024/03/03 05:19:41;;;;;;;21.10;13.38;;;8.20;1.00;;;;;;5075432;28;20029;-68
2024/03/03 05:22:07;;;;;;;26.15;14.02;;;8.10;1.00;;;;;;5075026;28;20029;-68
2024/03/03 05:24:33;;;;;;;26.67;13.43;;;8.20;1.00;;;;;;5075013;28;20028;-68
2024/03/03 05:26:59;;;;;;;24.13;13.88;;;8.20;1.00;;;;;;5074885;28;20063;-67
2024/03/03 05:29:26;;;;;;;26.23;13.30;;;8.20;1.00;;;;;;5075199;28;20068;-67
2024/03/03 05:31:52;;;;;;;22.88;13.15;;;8.30;99.90;;;;;;5074737;28;20051;-67
2024/03/03 05:34:18;;;;;;;19.15;12.55;;;8.20;1.00;;;;;;5075203;28;20112;-68
2024/03/03 05:36:45;;;;;;;22.17;12.80;;;8.20;1.00;;;;;;5075162;28;20386;-67
2024/03/03 05:39:12;;;;;;;25.75;14.63;;;8.10;1.00;;;;;;5075120;28;20074;-68
2024/03/03 05:41:38;;;;;;;27.35;13.73;;;8.10;99.90;;;;;;5075028;28;20535;-68
2024/03/03 05:44:04;;;;;;;25.10;14.02;;;8.10;99.90;;;;;;5074962;28;20025;-67
2024/03/03 05:46:30;;;;;;;22.27;12.98;;;8.00;99.90;;;;;;5075075;28;20036;-68
2024/03/03 05:48:56;;;;;;;26.00;14.57;;;8.00;99.90;;;;;;5074916;28;20027;-68
2024/03/03 05:51:22;;;;;;;25.48;14.30;;;8.00;99.90;;;;;;5074350;28;20474;-67
2024/03/03 05:53:47;;;;;;;23.67;14.35;;;8.00;99.90;;;;;;5074836;28;20035;-68
2024/03/03 05:56:14;;;;;;;23.58;14.25;;;8.00;99.90;;;;;;5074667;28;20032;-67
2024/03/03 05:58:40;;;;;;;20.77;13.68;;;8.00;99.90;;;;;;5074739;28;20052;-68
2024/03/03 06:01:06;;;;;;;24.30;14.23;;;8.00;99.90;;;;;;5074753;28;20479;-67
2024/03/03 06:03:32;;;;;;;28.35;14.77;;;8.00;99.90;;;;;;5074683;28;20029;-68
2024/03/03 06:05:57;;;;;;;27.13;14.50;;;8.00;99.90;;;;;;5074375;28;20447;-68
2024/03/03 06:08:23;;;;;;;22.55;13.45;;;8.00;99.90;;;;;;5074535;28;20037;-67
2024/03/03 06:10:48;;;;;;;23.85;13.95;;;7.90;99.90;;;;;;5074337;28;20539;-67
2024/03/03 06:13:14;;;;;;;29.83;15.80;;;7.90;1.00;;;;;;5074184;28;20069;-67
2024/03/03 06:15:39;;;;;;;23.05;14.05;;;8.00;99.90;;;;;;5074630;28;20028;-68
2024/03/03 06:18:05;;;;;;;22.80;13.95;;;8.00;99.90;;;;;;5074233;28;20024;-68
2024/03/03 06:20:31;;;;;;;27.67;14.90;;;8.00;99.90;;;;;;5073961;28;20068;-68
2024/03/03 06:22:57;;;;;;;25.23;13.85;;;8.10;99.90;;;;;;5074190;28;20036;-67
2024/03/03 06:25:23;;;;;;;25.33;15.05;;;8.10;99.90;;;;;;5074171;28;20062;-67
2024/03/03 06:27:48;;;;;;;24.17;14.30;;;8.10;99.90;;;;;;5073689;28;20047;-67
2024/03/03 06:30:14;;;;;;;25.50;14.52;;;8.20;99.90;;;;;;5073795;28;20052;-67
2024/03/03 06:32:40;;;;;;;26.70;14.25;;;8.40;99.90;;;;;;5073633;28;20032;-68
2024/03/03 06:35:10;;;;;;;24.05;13.60;;;8.70;1.00;;;;;;5074052;28;20043;-68
2024/03/03 06:37:36;;;;;;;22.77;14.45;;;9.10;99.90;;;;;;5073354;28;20478;-68
2024/03/03 06:40:02;;;;;;;27.20;13.80;;;9.60;99.90;;;;;;5074110;28;20119;-68
2024/03/03 06:42:29;;;;;;;22.17;12.57;;;9.90;99.90;;;;;;5073933;28;20391;-67
2024/03/03 06:44:55;;;;;;;20.23;12.77;;;10.40;99.90;;;;;;5073338;28;20028;-68
2024/03/03 06:47:21;;;;;;;24.00;13.43;;;10.80;1.00;;;;;;5073448;28;20058;-68
2024/03/03 06:49:46;;;;;;;22.17;12.95;;;11.10;99.90;;;;;;5073741;28;20033;-68
2024/03/03 06:52:12;;;;;;;16.83;11.77;;;11.70;99.90;;;;;;5073454;28;20111;-68
2024/03/03 06:54:37;;;;;;;20.63;12.57;;;12.20;59.30;;;;;;5073740;28;20032;-68
2024/03/03 06:57:03;;;;;;;20.35;11.82;;;12.30;1.00;;;;;;5073151;28;20027;-68
2024/03/03 06:59:30;;;;;;;20.73;12.55;;;12.50;1.00;;;;;;5073446;28;20032;-68
2024/03/03 07:01:55;;;;;;;19.88;11.60;;;12.50;1.00;;;;;;5073025;28;20035;-68
2024/03/03 07:04:24;;;;;;;18.30;12.10;;;12.40;1.00;;;;;;5073270;28;20131;-68
2024/03/03 07:06:51;;;;;;;22.33;12.25;;;12.50;99.90;;;;;;5073365;28;20536;-68
2024/03/03 07:09:18;;;;;;;21.98;12.18;;;13.00;99.90;;;;;;5073340;28;20032;-68
2024/03/03 07:11:44;;;;;;;19.95;11.60;;;13.70;99.90;;;;;;5072925;28;20034;-68
2024/03/03 07:14:09;;;;;;;19.27;11.82;;;14.60;99.90;;;;;;5073467;28;20111;-68
2024/03/03 07:16:35;;;;;;;17.27;11.73;;;14.90;99.90;;;;;;5073501;28;20090;-68
2024/03/03 07:19:00;;;;;;;18.83;11.98;;;15.60;99.90;;;;;;5073333;28;20028;-68
2024/03/03 07:21:27;;;;;;;18.48;11.90;;;15.60;99.90;;;;;;5073214;28;20036;-69
2024/03/03 07:23:53;;;;;;;16.70;12.15;;;15.30;99.90;;;;;;5073258;28;20517;-69
2024/03/03 07:26:18;;;;;;;18.23;12.68;;;14.70;99.90;;;;;;5073173;28;20032;-68
2024/03/03 07:28:44;;;;;;;18.63;12.15;;;15.20;99.90;;;;;;5073154;28;20044;-69
2024/03/03 07:31:09;;;;;;;19.33;11.32;;;15.90;99.90;;;;;;5072806;28;20052;-68
2024/03/03 07:33:35;;;;;;;19.45;12.70;;;15.70;99.90;;;;;;5072765;28;20382;-68
2024/03/03 07:36:01;;;;;;;19.25;11.70;;;15.80;99.90;;;;;;5073162;28;20080;-69
2024/03/03 07:38:26;;;;;;;18.88;12.10;;;15.70;99.90;;;;;;5073093;28;20387;-69
2024/03/03 07:40:52;;;;;;;18.08;11.85;;;15.60;99.90;;;;;;5073157;28;20032;-69
2024/03/03 07:43:17;;;;;;;18.88;12.88;;;15.40;99.90;;;;;;5073030;28;20029;-68
2024/03/03 07:45:43;;;;;;;18.52;11.98;;;15.30;99.90;;;;;;5072963;28;20021;-69
2024/03/03 07:48:08;;;;;;;17.60;11.93;;;15.40;99.90;;;;;;5075308;28;20099;-69
2024/03/03 07:50:34;;;;;;;20.60;11.63;;;15.50;99.90;;;;;;5077126;28;20025;-68
2024/03/03 07:52:59;;;;;;;17.70;11.70;;;15.80;99.90;;;;;;5076712;28;20030;-68
2024/03/03 07:55:25;;;;;;;18.48;12.15;;;16.00;99.90;;;;;;5076584;28;20069;-69
2024/03/03 07:57:51;;;;;;;18.48;12.25;;;15.60;99.90;;;;;;5076988;28;20021;-68
2024/03/03 08:00:17;;;;;;;18.30;12.13;;;15.50;99.90;;;;;;5076854;28;20433;-68
2024/03/03 08:02:42;;;;;;;20.33;13.43;;;15.40;99.90;;;;;;5076933;28;20555;-69
2024/03/03 08:05:08;;;;;;;17.90;11.88;;;15.10;99.90;;;;;;5076590;28;20112;-69
2024/03/03 08:07:33;;;;;;;19.98;12.80;;;14.60;99.90;;;;;;5076798;28;20032;-69
2024/03/03 08:09:59;;;;;;;18.35;11.80;;;15.60;99.90;;;;;;5076360;28;20032;-68
2024/03/03 08:12:24;;;;;;;17.35;12.13;;;16.30;99.90;;;;;;5076428;28;20035;-69
2024/03/03 08:14:50;;;;;;;19.25;11.90;;;15.90;99.90;;;;;;5076596;28;20025;-69
2024/03/03 08:17:15;;;;;;;18.75;12.52;;;15.70;99.90;;;;;;5076197;28;20021;-69
2024/03/03 08:19:41;;;;;;;16.85;11.55;;;16.30;99.90;;;;;;5076680;28;20032;-69
2024/03/03 08:22:09;;;;;;;17.17;12.27;;;16.40;99.40;;;;;;5076286;28;20036;-68
2024/03/03 08:24:34;;;;;;;18.50;11.77;;;16.50;91.90;;;;;;5076126;28;20055;-68
2024/03/03 08:27:00;;;;;;;18.20;11.52;;;16.50;98.30;;;;;;5076410;28;20048;-69
2024/03/03 08:29:25;;;;;;;18.17;11.82;;;17.00;93.80;;;;;;5076329;28;20044;-69
2024/03/03 08:31:51;;;;;;;15.70;11.05;;;17.50;80.90;;;;;;5075642;28;20053;-69
2024/03/03 08:34:16;;;;;;;16.25;11.85;;;17.40;59.40;;;;;;5076358;28;20032;-69
2024/03/03 08:36:43;;;;;;;16.15;11.95;;;17.90;54.10;;;;;;5076356;28;20028;-67
2024/03/03 08:39:11;;;;;;;17.30;12.23;;;17.70;67.30;;;;;;5076122;28;20112;-67
2024/03/03 08:41:40;;;;;;;19.00;12.02;;;18.60;33.90;;;;;;5076209;28;20029;-67
2024/03/03 08:44:06;;;;;;;15.77;11.40;;;18.50;1.00;;;;;;5076057;28;20535;-67
2024/03/03 08:46:31;;;;;;;15.40;11.02;;;18.90;1.00;;;;;;5076106;28;20153;-68
2024/03/03 08:48:57;;;;;;;16.98;11.45;;;18.70;1.00;;;;;;5075949;28;20068;-68
2024/03/03 08:51:23;;;;;;;15.85;10.65;;;18.60;1.00;;;;;;5075924;28;20032;-68
2024/03/03 08:53:48;;;;;;;16.98;11.23;;;18.80;6.10;;;;;;5075587;28;20033;-67
2024/03/03 08:56:14;;;;;;;17.15;11.35;;;19.30;1.00;;;;;;5075812;28;20107;-68
2024/03/03 08:58:39;;;;;;;16.17;10.13;;;19.40;1.00;;;;;;5075226;28;20111;-68
2024/03/03 09:01:06;;;;;;;14.90;11.15;;;;;;;;;;5075728;28;20392;-68
2024/03/03 09:03:31;;;;;;;14.27;10.30;;;20.70;1.00;;;;;;5075849;28;20040;-69
2024/03/03 09:05:57;;;;;;;16.60;11.10;;;20.90;1.00;;;;;;5075315;28;20157;-68
2024/03/03 09:08:22;;;;;;;15.32;10.48;;;19.80;1.00;;;;;;5075639;28;20474;-68
2024/03/03 09:10:48;;;;;;;14.20;10.52;;;19.80;1.00;;;;;;5075422;28;20040;-68
2024/03/03 09:13:14;;;;;;;12.90;10.18;;;19.00;1.00;;;;;;5075673;28;20032;-68
2024/03/03 09:15:39;;;;;;;14.85;11.05;;;19.00;1.00;;;;;;5075562;28;20533;-68
2024/03/03 09:18:05;;;;;;;17.50;11.10;;;18.50;1.00;;;;;;5075560;28;20551;-68
2024/03/03 09:20:31;;;;;;;13.65;10.13;;;18.80;1.00;;;;;;5075214;28;20021;-68
2024/03/03 09:22:57;;;;;;;14.20;10.50;;;19.30;1.00;;;;;;5075052;28;20060;-68
2024/03/03 09:25:22;;;;;;;14.25;10.38;;;19.70;1.00;;;;;;5074919;28;20074;-68
2024/03/03 09:27:48;;;;;;;17.95;12.25;;;18.00;1.00;;;;;;5075184;28;20082;-68
2024/03/03 09:30:14;;;;;;;17.48;11.52;;;17.60;1.00;;;;;;5075068;28;20049;-68
2024/03/03 09:32:40;;;;;;;17.33;11.13;;;17.70;1.00;;;;;;5074927;28;20025;-69
2024/03/03 09:35:06;;;;;;;14.57;9.85;;;17.70;1.00;;;;;;5075259;28;20028;-68
2024/03/03 09:37:32;;;;;;;16.23;10.80;;;17.60;1.00;;;;;;5074664;28;20093;-68
2024/03/03 09:39:57;;;;;;;14.23;10.10;;;18.50;1.00;;;;;;5074680;28;20025;-68
2024/03/03 09:42:23;;;;;;;13.48;10.50;;;19.20;1.00;;;;;;5074956;28;20028;-69
2024/03/03 09:44:51;;;;;;;15.63;10.32;;;19.70;1.00;;;;;;5074964;28;20033;-69
2024/03/03 09:47:18;;;;;;;15.43;10.30;;;19.70;1.00;;;;;;5074989;28;20039;-69
2024/03/03 09:49:45;;;;;;;14.68;10.27;;;20.00;1.00;;;;;;5074866;28;20032;-68
2024/03/03 09:52:13;;;;;;;14.38;11.00;;;18.70;1.00;;;;;;5074589;28;20035;-68
2024/03/03 09:54:40;;;;;;;17.35;11.70;;;18.70;1.00;;;;;;5074825;28;20386;-68
2024/03/03 09:57:11;;;;;;;14.50;10.88;;;18.50;1.00;;;;;;5074776;28;20016;-68
2024/03/03 09:59:38;;;;;;;15.00;11.18;;;17.50;1.00;;;;;;5074508;28;20025;-68
2024/03/03 10:02:15;;;;;;;16.08;10.88;;;17.00;1.00;;;;;;5074706;28;20032;-68
2024/03/03 10:04:44;;;;;;;15.52;11.32;;;17.40;1.00;;;;;;5074746;28;20028;-68
2024/03/03 10:07:16;;;;;;;19.58;12.77;;;17.00;1.00;;;;;;5074706;28;20363;-68
2024/03/03 10:09:44;;;;;;;14.93;10.95;;;16.60;1.00;;;;;;5074663;28;20025;-68
2024/03/03 10:12:11;;;;;;;16.77;12.10;;;16.20;1.00;;;;;;5073386;28;20048;-67
2024/03/03 10:14:38;;;;;;;17.58;11.88;;;16.40;1.00;;;;;;5074499;28;20033;-67
2024/03/03 10:17:05;;;;;;;16.77;11.93;;;17.00;1.00;;;;;;5074624;28;20363;-68
2024/03/03 10:19:30;;;;;;;16.75;12.18;;;17.90;1.00;;;;;;5074348;28;20023;-68
2024/03/03 10:21:56;;;;;;;15.73;11.90;;;18.60;1.00;;;;;;5074303;28;20107;-68
2024/03/03 10:24:26;;;;;;;17.55;11.32;;;18.60;1.00;;;;;;5073926;28;20025;-68
2024/03/03 10:26:54;;;;;;;19.95;11.93;;;18.70;1.00;;;;;;5073790;28;20036;-68
2024/03/03 10:29:21;;;;;;;17.83;11.13;;;18.90;1.00;;;;;;5074215;28;20119;-70
2024/03/03 10:31:48;;;;;;;17.13;11.48;;;17.50;1.00;;;;;;5073590;28;20078;-68
2024/03/03 10:34:15;;;;;;;15.73;10.57;;;18.20;1.00;;;;;;5074094;28;20108;-69
2024/03/03 10:36:41;;;;;;;15.18;11.77;;;19.40;1.00;;;;;;5074014;28;20111;-68
2024/03/03 10:39:09;;;;;;;18.23;12.02;;;18.70;1.00;;;;;;5074054;28;20051;-67
2024/03/03 10:41:36;;;;;;;17.25;12.00;;;18.50;1.00;;;;;;5074055;28;20166;-68
2024/03/03 10:44:03;;;;;;;17.95;12.02;;;17.70;1.00;;;;;;5073397;28;20029;-68
2024/03/03 10:46:29;;;;;;;18.08;12.40;;;17.70;1.00;;;;;;5073888;28;20394;-68
2024/03/03 10:48:55;;;;;;;17.88;12.38;;;17.70;1.00;;;;;;5073755;28;20036;-69
2024/03/03 10:51:22;;;;;;;15.98;11.60;;;17.10;1.00;;;;;;5073733;28;20032;-68
2024/03/03 10:53:51;;;;;;;15.40;12.38;;;16.80;1.00;;;;;;5073809;28;20115;-68
2024/03/03 10:56:18;;;;;;;19.67;13.30;;;17.20;1.00;;;;;;5073579;28;20058;-68
2024/03/03 10:58:45;;;;;;;18.80;12.45;;;16.90;1.00;;;;;;5073673;28;20112;-69
2024/03/03 11:01:11;;;;;;;19.38;11.93;;;17.20;1.00;;;;;;5073747;28;20490;-68
2024/03/03 11:03:38;;;;;;;16.58;11.35;;;17.50;1.00;;;;;;5073523;28;20086;-68
2024/03/03 11:06:06;;;;;;;15.63;11.52;;;18.00;1.00;;;;;;5073631;28;20031;-68
2024/03/03 11:08:33;;;;;;;16.08;11.18;;;18.50;1.00;;;;;;5073484;28;20021;-68
2024/03/03 11:11:06;;;;;;;16.15;11.13;;;18.30;1.00;;;;;;5073497;28;20062;-69
2024/03/03 11:13:35;;;;;;;14.45;11.63;;;18.30;1.00;;;;;;5073425;28;20073;-69
2024/03/03 11:16:03;;;;;;;20.02;12.18;;;17.90;1.00;;;;;;5073378;28;20031;-69
2024/03/03 11:18:33;;;;;;;16.40;12.20;;;17.80;1.00;;;;;;5073076;28;20024;-69
2024/03/03 11:21:07;;;;;;;15.82;10.90;;;17.80;1.00;;;;;;5072980;28;20032;-69
2024/03/03 11:23:47;;;;;;;16.88;12.32;;;18.40;1.00;;;;;;5073078;28;20104;-69
2024/03/03 11:26:22;;;;;;;13.45;10.68;;;18.10;1.00;;;;;;5073445;28;20021;-68
2024/03/03 11:28:57;;;;;;;16.83;11.98;;;17.40;1.00;;;;;;5072935;28;20536;-69
2024/03/03 11:31:23;;;;;;;19.20;12.80;;;17.40;1.00;;;;;;5072775;28;20529;-68
2024/03/03 11:33:51;;;;;;;15.85;11.25;;;17.70;1.00;;;;;;5073347;28;20052;-68
2024/03/03 11:36:17;;;;;;;14.88;11.63;;;18.00;1.00;;;;;;5073276;28;20024;-69
2024/03/03 11:38:43;;;;;;;16.98;12.07;;;18.00;1.00;;;;;;5073198;28;20054;-68
2024/03/03 11:41:10;;;;;;;16.38;12.65;;;17.90;1.00;;;;;;5073245;28;20428;-68
2024/03/03 11:43:40;;;;;;;17.38;12.55;;;17.80;1.00;;;;;;5073329;28;20025;-68
2024/03/03 11:46:05;;;;;;;17.20;11.98;;;17.70;1.00;;;;;;5072809;28;20036;-68
2024/03/03 11:48:32;;;;;;;20.40;12.55;;;17.10;1.00;;;;;;5073193;28;20036;-68
2024/03/03 11:51:26;;;;;;;18.33;11.80;;;17.10;1.00;;;;;;5072957;28;20078;-68
2024/03/03 11:54:07;;;;;;;;;;;17.10;1.00;;;;;;5073347;28;20471;-68
2024/03/03 11:56:50;;;;;;;16.42;12.10;;;16.30;1.00;;;;;;5073028;28;19955;-68
2024/03/03 11:59:15;;;;;;;18.50;12.02;;;16.90;1.00;;;;;;5072696;28;20020;-68
2024/03/03 12:01:47;;;;;;;20.75;12.45;;;17.20;1.00;;;;;;5072722;28;20032;-68
2024/03/03 12:04:13;;;;;;;20.60;12.35;;;16.70;1.00;;;;;;5073185;28;20493;-67
2024/03/03 12:06:42;;;;;;;18.88;12.45;;;16.40;1.00;;;;;;5072747;28;20036;-68
2024/03/03 12:09:10;;;;;;;19.48;12.85;;;15.90;1.00;;;;;;5072997;28;20025;-68
2024/03/03 12:11:37;;;;;;;20.13;12.43;;;15.80;1.00;;;;;;5072918;28;20035;-69
2024/03/03 12:14:02;;;;;;;18.52;13.25;;;15.90;1.00;;;;;;5072519;28;20086;-68
2024/03/03 12:16:31;;;;;;;18.95;12.98;;;16.00;1.00;;;;;;5072954;28;20020;-68
2024/03/03 12:18:57;;;;;;;25.92;12.90;;;16.30;1.00;;;;;;5072788;28;20021;-68
2024/03/03 12:21:23;;;;;;;16.55;11.77;;;16.50;1.00;;;;;;5072442;28;20398;-68
2024/03/03 12:23:49;;;;;;;18.05;12.57;;;16.30;1.00;;;;;;5072887;28;20020;-69
2024/03/03 12:26:15;;;;;;;18.45;13.18;;;16.50;1.00;;;;;;5072830;28;20033;-68
2024/03/03 12:28:41;;;;;;;20.70;13.93;;;16.60;1.00;;;;;;5072874;28;20059;-68
2024/03/03 12:31:06;;;;;;;17.05;11.70;;;16.60;1.00;;;;;;5072308;28;20083;-68
2024/03/03 12:33:33;;;;;;;16.65;11.95;;;16.30;1.00;;;;;;5072193;28;20410;-68